createdAt,value
2022-12-18T00:01:56.937Z,40.17
2022-12-18T00:04:33.361Z,42.25
2022-12-18T00:07:24.001Z,41.67
2022-12-18T00:09:57.013Z,43.80
2022-12-18T00:12:44.130Z,42.88
2022-12-18T00:15:18.204Z,40.65
2022-12-18T00:18:06.024Z,41.85
2022-12-18T00:20:47.075Z,41.35
2022-12-18T00:23:35.325Z,37.40
2022-12-18T00:26:11.152Z,43.95
2022-12-18T00:28:58.992Z,43.05
2022-12-18T00:31:33.247Z,43.70
2022-12-18T00:34:21.030Z,42.75
2022-12-18T00:36:55.153Z,40.67
2022-12-18T00:39:42.059Z,39.72
2022-12-18T00:42:56.944Z,47.30
2022-12-18T00:45:44.161Z,45.75
2022-12-18T00:48:18.252Z,46.08
2022-12-18T00:51:06.139Z,47.00
2022-12-18T00:53:40.327Z,41.13
2022-12-18T00:56:27.040Z,38.67
2022-12-18T00:59:01.163Z,42.17
2022-12-18T01:01:48.671Z,39.85
2022-12-18T01:04:22.164Z,41.38
2022-12-18T01:07:09.091Z,38.38
2022-12-18T01:09:43.283Z,40.60
2022-12-18T01:12:30.095Z,42.40
2022-12-18T01:15:03.367Z,39.63
2022-12-18T01:17:50.299Z,39.30
2022-12-18T01:20:24.310Z,43.10
2022-12-18T01:23:11.227Z,40.20
2022-12-18T01:25:44.282Z,38.63
2022-12-18T01:28:31.375Z,38.35
2022-12-18T01:31:06.572Z,41.17
2022-12-18T01:33:57.162Z,39.35
2022-12-18T01:36:33.731Z,38.83
2022-12-18T01:39:22.378Z,40.92
2022-12-18T01:42:02.739Z,39.97
2022-12-18T01:45:13.226Z,37.88
2022-12-18T01:48:08.336Z,36.33
2022-12-18T01:50:57.403Z,37.70
2022-12-18T01:53:31.313Z,38.50
2022-12-18T01:56:24.208Z,39.70
2022-12-18T01:59:12.592Z,42.30
2022-12-18T02:01:59.493Z,43.13
2022-12-18T02:04:35.516Z,44.83
2022-12-18T02:07:28.311Z,41.13
2022-12-18T02:10:28.393Z,43.78
2022-12-18T02:13:42.306Z,39.95
2022-12-18T02:16:37.441Z,38.50
2022-12-18T02:19:43.301Z,44.50
2022-12-18T02:22:28.736Z,44.83
2022-12-18T02:25:33.299Z,42.25
2022-12-18T02:28:11.404Z,41.45
2022-12-18T02:31:01.414Z,43.53
2022-12-18T02:33:38.210Z,42.45
2022-12-18T02:36:28.320Z,39.43
2022-12-18T02:39:03.603Z,43.05
2022-12-18T02:41:50.463Z,43.05
2022-12-18T02:44:23.633Z,38.50
2022-12-18T02:47:10.396Z,44.38
2022-12-18T02:50:03.333Z,44.75
2022-12-18T02:53:14.397Z,40.55
2022-12-18T02:56:09.530Z,43.63
2022-12-18T02:59:05.390Z,45.00
2022-12-18T03:01:55.494Z,43.85
2022-12-18T03:04:42.454Z,45.55
2022-12-18T03:07:26.623Z,43.22
2022-12-18T03:10:16.418Z,45.55
2022-12-18T03:13:00.986Z,44.10
2022-12-18T03:15:55.653Z,45.80
2022-12-18T03:18:52.690Z,42.53
2022-12-18T03:22:01.425Z,44.47
2022-12-18T03:24:40.120Z,47.22
2022-12-18T03:27:30.567Z,44.67
2022-12-18T03:30:16.603Z,45.53
2022-12-18T03:33:11.450Z,42.78
2022-12-18T03:35:47.566Z,46.63
2022-12-18T03:38:37.468Z,44.08
2022-12-18T03:41:21.689Z,48.30
2022-12-18T03:44:35.599Z,41.08
2022-12-18T03:47:50.473Z,47.08
2022-12-18T03:50:54.529Z,44.60
2022-12-18T03:53:33.599Z,45.47
2022-12-18T03:56:23.555Z,46.53
2022-12-18T03:59:00.610Z,46.45
2022-12-18T04:01:54.591Z,44.75
2022-12-18T04:04:29.656Z,49.25
2022-12-18T04:07:17.579Z,41.97
2022-12-18T04:09:52.675Z,39.63
2022-12-18T04:12:39.698Z,43.05
2022-12-18T04:15:14.700Z,47.13
2022-12-18T04:18:01.793Z,44.92
2022-12-18T04:20:35.658Z,45.15
2022-12-18T04:23:22.615Z,40.42
2022-12-18T04:25:56.728Z,43.78
2022-12-18T04:28:43.676Z,42.63
2022-12-18T04:31:16.785Z,43.70
2022-12-18T04:34:03.605Z,43.92
2022-12-18T04:36:37.971Z,46.20
2022-12-18T04:39:25.825Z,41.60
2022-12-18T04:41:59.921Z,43.22
2022-12-18T04:44:54.681Z,43.38
2022-12-18T04:47:48.653Z,38.83
2022-12-18T04:50:36.675Z,41.93
2022-12-18T04:53:09.869Z,39.88
2022-12-18T04:55:56.705Z,38.13
2022-12-18T04:58:29.776Z,43.67
2022-12-18T05:01:19.050Z,39.30
2022-12-18T05:03:52.976Z,41.00
2022-12-18T05:06:39.684Z,43.38
2022-12-18T05:09:14.133Z,39.83
2022-12-18T05:12:01.708Z,41.65
2022-12-18T05:14:34.827Z,39.38
2022-12-18T05:17:21.738Z,39.38
2022-12-18T05:19:54.902Z,42.53
2022-12-18T05:22:42.741Z,39.47
2022-12-18T05:25:17.034Z,39.33
2022-12-18T05:28:03.697Z,37.33
2022-12-18T05:30:37.036Z,38.92
2022-12-18T05:33:24.757Z,38.70
2022-12-18T05:36:03.061Z,40.05
2022-12-18T05:38:49.804Z,36.55
2022-12-18T05:41:23.078Z,40.50
2022-12-18T05:44:17.080Z,36.85
2022-12-18T05:47:10.895Z,39.23
2022-12-18T05:49:57.858Z,33.43
2022-12-18T05:52:32.990Z,36.58
2022-12-18T05:55:19.890Z,37.88
2022-12-18T05:57:53.089Z,38.63
2022-12-18T06:00:42.850Z,38.40
2022-12-18T06:03:18.140Z,33.20
2022-12-18T06:06:05.907Z,37.17
2022-12-18T06:08:42.916Z,32.80
2022-12-18T06:11:34.865Z,34.20
2022-12-18T06:14:09.089Z,35.03
2022-12-18T06:16:58.938Z,34.72
2022-12-18T06:19:36.590Z,35.60
2022-12-18T06:22:22.861Z,33.53
2022-12-18T06:24:56.159Z,37.08
2022-12-18T06:27:42.940Z,33.03
2022-12-18T06:30:18.209Z,35.25
2022-12-18T06:33:05.122Z,33.72
2022-12-18T06:35:40.258Z,31.05
2022-12-18T06:38:28.078Z,33.55
2022-12-18T06:41:01.085Z,30.80
2022-12-18T06:43:59.578Z,30.42
2022-12-18T06:46:54.079Z,29.77
2022-12-18T06:49:41.008Z,32.53
2022-12-18T06:52:14.076Z,30.80
2022-12-18T06:55:00.960Z,29.88
2022-12-18T06:57:34.361Z,28.25
2022-12-18T07:00:24.067Z,30.55
2022-12-18T07:02:57.173Z,27.98
2022-12-18T07:05:47.972Z,29.60
2022-12-18T07:08:21.166Z,30.90
2022-12-18T07:11:12.038Z,26.55
2022-12-18T07:13:46.758Z,25.17
2022-12-18T07:16:36.084Z,26.23
2022-12-18T07:19:10.193Z,32.00
2022-12-18T07:22:01.016Z,27.85
2022-12-18T07:24:35.997Z,26.75
2022-12-18T07:27:23.416Z,27.00
2022-12-18T07:29:57.174Z,27.77
2022-12-18T07:32:50.104Z,28.48
2022-12-18T07:35:27.195Z,27.10
2022-12-18T07:38:17.038Z,24.47
2022-12-18T07:44:39.113Z,25.52
2022-12-18T07:47:19.218Z,24.75
2022-12-18T07:49:59.056Z,23.27
2022-12-18T07:52:39.347Z,23.33
2022-12-18T07:55:20.122Z,24.45
2022-12-18T07:58:01.314Z,22.70
2022-12-18T08:00:42.088Z,22.92
2022-12-18T08:03:22.255Z,21.25
2022-12-18T08:06:09.157Z,24.05
2022-12-18T08:08:49.498Z,20.67
2022-12-18T08:14:11.247Z,22.60
2022-12-18T08:16:51.144Z,26.53
2022-12-18T08:19:35.285Z,25.42
2022-12-18T08:22:15.505Z,23.40
2022-12-18T08:24:56.867Z,22.90
2022-12-18T08:27:37.406Z,22.17
2022-12-18T08:30:18.266Z,25.33
2022-12-18T08:35:46.133Z,25.23
2022-12-18T08:38:30.485Z,26.92
2022-12-18T08:41:16.865Z,23.00
2022-12-18T08:44:15.253Z,24.85
2022-12-18T08:46:55.405Z,26.40
2022-12-18T08:49:35.237Z,23.92
2022-12-18T08:52:15.484Z,23.70
2022-12-18T08:54:55.208Z,29.13
2022-12-18T08:57:35.388Z,25.65
2022-12-18T09:00:16.245Z,26.30
2022-12-18T09:02:56.505Z,23.02
2022-12-18T09:05:36.308Z,23.05
2022-12-18T09:08:16.402Z,22.55
2022-12-18T09:10:57.285Z,23.43
2022-12-18T09:13:37.826Z,23.85
2022-12-18T09:16:17.582Z,23.75
2022-12-18T09:19:02.868Z,22.13
2022-12-18T09:21:48.235Z,23.02
2022-12-18T09:24:28.476Z,21.02
2022-12-18T09:27:09.408Z,22.50
2022-12-18T09:29:49.511Z,20.95
2022-12-18T09:32:29.367Z,20.00
2022-12-18T09:35:09.491Z,21.98
2022-12-18T09:37:50.411Z,20.90
2022-12-18T09:40:36.465Z,19.80
2022-12-18T09:43:24.375Z,21.23
2022-12-18T09:46:23.438Z,20.27
2022-12-18T09:49:18.377Z,22.00
2022-12-18T09:52:09.695Z,17.77
2022-12-18T09:55:13.628Z,19.27
2022-12-18T09:57:52.751Z,17.73
2022-12-18T10:00:39.783Z,17.77
2022-12-18T10:03:23.722Z,17.63
2022-12-18T10:06:28.646Z,16.33
2022-12-18T10:09:06.752Z,17.27
2022-12-18T10:14:54.536Z,16.98
2022-12-18T10:18:04.468Z,17.85
2022-12-18T10:20:45.078Z,14.35
2022-12-18T10:23:43.679Z,15.13
2022-12-18T10:26:21.719Z,14.20
2022-12-18T10:29:12.551Z,13.65
2022-12-18T10:31:45.770Z,14.18
2022-12-18T10:34:32.630Z,14.15
2022-12-18T10:37:09.824Z,13.18
2022-12-18T10:40:23.687Z,13.65
2022-12-18T10:43:20.716Z,12.18
2022-12-18T10:46:16.776Z,12.73
2022-12-18T10:48:57.135Z,12.23
2022-12-18T10:51:45.669Z,11.55
2022-12-18T10:54:32.840Z,11.65
2022-12-18T10:57:42.686Z,11.70
2022-12-18T11:00:37.362Z,11.52
2022-12-18T11:03:39.809Z,10.60
2022-12-18T11:06:26.620Z,11.00
2022-12-18T11:09:28.770Z,11.30
2022-12-18T11:12:07.801Z,10.77
2022-12-18T11:15:03.741Z,10.15
2022-12-18T11:17:40.960Z,10.43
2022-12-18T11:20:39.728Z,9.93
2022-12-18T11:23:20.838Z,9.75
2022-12-18T11:26:11.901Z,9.63
2022-12-18T11:31:36.771Z,8.07
2022-12-18T11:34:36.824Z,8.70
2022-12-18T11:37:26.706Z,8.60
2022-12-18T11:40:09.263Z,9.27
2022-12-18T11:43:27.815Z,9.25
2022-12-18T11:46:31.026Z,7.78
2022-12-18T11:49:29.794Z,9.15
2022-12-18T11:52:30.143Z,8.07
2022-12-18T11:55:54.753Z,8.52
2022-12-18T11:58:40.357Z,8.95
2022-12-18T12:01:51.068Z,9.68
2022-12-18T12:04:45.976Z,8.93
2022-12-18T12:07:42.808Z,8.80
2022-12-18T12:10:21.853Z,8.57
2022-12-18T12:13:22.804Z,7.40
2022-12-18T12:16:17.916Z,7.88
2022-12-18T12:19:31.742Z,7.75
2022-12-18T12:22:36.067Z,7.82
2022-12-18T12:25:48.932Z,7.60
2022-12-18T12:28:41.227Z,8.57
2022-12-18T12:31:40.874Z,7.45
2022-12-18T12:34:39.956Z,7.90
2022-12-18T12:38:12.941Z,7.10
2022-12-18T12:41:05.180Z,7.22
2022-12-18T12:43:56.992Z,6.03
2022-12-18T12:46:33.158Z,7.30
2022-12-18T12:49:26.912Z,6.75
2022-12-18T12:52:12.241Z,7.45
2022-12-18T12:55:00.919Z,6.78
2022-12-18T12:57:44.056Z,6.88
2022-12-18T13:00:33.908Z,7.32
2022-12-18T13:03:20.037Z,6.75
2022-12-18T13:06:14.920Z,7.03
2022-12-18T13:09:05.127Z,7.30
2022-12-18T13:12:12.911Z,7.80
2022-12-18T13:14:50.075Z,6.93
2022-12-18T13:17:38.956Z,6.80
2022-12-18T13:20:24.256Z,7.13
2022-12-18T13:23:33.026Z,7.47
2022-12-18T13:26:29.073Z,6.53
2022-12-18T13:29:15.949Z,7.13
2022-12-18T13:31:50.307Z,7.15
2022-12-18T13:34:39.158Z,6.70
2022-12-18T13:37:41.081Z,6.47
2022-12-18T13:40:45.992Z,6.55
2022-12-18T13:43:44.125Z,7.15
2022-12-18T13:46:51.025Z,6.68
2022-12-18T13:49:45.143Z,7.00
2022-12-18T13:52:45.022Z,6.70
2022-12-18T13:55:26.248Z,7.22
2022-12-18T13:58:14.246Z,6.65
2022-12-18T14:00:52.357Z,7.43
2022-12-18T14:03:39.250Z,7.15
2022-12-18T14:06:16.166Z,6.82
2022-12-18T14:11:38.211Z,7.05
2022-12-18T14:14:33.508Z,6.35
2022-12-18T14:17:08.688Z,7.22
2022-12-18T14:19:58.140Z,7.55
2022-12-18T14:22:34.202Z,7.15
2022-12-18T14:25:21.409Z,7.45
2022-12-18T14:27:59.503Z,6.45
2022-12-18T14:30:51.319Z,6.95
2022-12-18T14:33:32.338Z,8.00
2022-12-18T14:36:32.436Z,8.07
2022-12-18T14:39:08.028Z,7.10
2022-12-18T14:41:57.237Z,8.48
2022-12-18T14:44:44.187Z,7.70
2022-12-18T14:47:31.218Z,7.28
2022-12-18T14:50:05.433Z,9.13
2022-12-18T14:52:54.205Z,8.38
2022-12-18T14:55:29.430Z,7.38
2022-12-18T14:58:23.415Z,7.70
2022-12-18T15:00:57.403Z,7.80
2022-12-18T15:03:52.955Z,8.88
2022-12-18T15:06:42.783Z,8.48
2022-12-18T15:09:33.356Z,8.63
2022-12-18T15:12:08.362Z,9.40
2022-12-18T15:14:55.199Z,9.50
2022-12-18T15:17:32.482Z,8.13
2022-12-18T15:20:21.198Z,8.52
2022-12-18T15:22:55.395Z,7.95
2022-12-18T15:25:45.587Z,9.00
2022-12-18T15:28:53.409Z,9.18
2022-12-18T15:31:43.273Z,8.75
2022-12-18T15:34:30.618Z,10.18
2022-12-18T15:37:17.623Z,7.82
2022-12-18T15:39:51.417Z,8.50
2022-12-18T15:42:57.272Z,8.75
2022-12-18T15:45:30.518Z,9.50
2022-12-18T15:48:29.393Z,9.65
2022-12-18T15:51:05.578Z,10.05
2022-12-18T15:53:54.333Z,9.48
2022-12-18T15:56:47.184Z,9.05
2022-12-18T15:59:34.448Z,9.40
2022-12-18T16:02:10.558Z,9.15
2022-12-18T16:04:59.672Z,10.35
2022-12-18T16:07:33.436Z,10.02
2022-12-18T16:10:20.569Z,10.05
2022-12-18T16:12:54.515Z,10.57
2022-12-18T16:15:41.474Z,10.50
2022-12-18T16:18:14.474Z,9.88
2022-12-18T16:21:01.366Z,10.65
2022-12-18T16:23:34.657Z,11.82
2022-12-18T16:26:21.702Z,10.75
2022-12-18T16:28:55.538Z,10.88
2022-12-18T16:31:43.390Z,11.38
2022-12-18T16:34:26.775Z,10.85
2022-12-18T16:37:17.495Z,9.95
2022-12-18T16:39:51.658Z,10.02
2022-12-18T16:42:38.404Z,11.43
2022-12-18T16:45:13.726Z,10.88
2022-12-18T16:48:00.454Z,12.35
2022-12-18T16:50:33.589Z,12.50
2022-12-18T16:53:20.649Z,12.48
2022-12-18T16:56:02.944Z,12.95
2022-12-18T16:58:49.454Z,11.77
2022-12-18T17:01:22.760Z,12.40
2022-12-18T17:04:12.878Z,11.43
2022-12-18T17:06:52.038Z,12.27
2022-12-18T17:09:38.536Z,10.95
2022-12-18T17:12:12.636Z,11.35
2022-12-18T17:14:59.575Z,10.70
2022-12-18T17:17:32.730Z,11.93
2022-12-18T17:20:19.879Z,11.23
2022-12-18T17:22:53.790Z,10.70
2022-12-18T17:25:40.566Z,11.52
2022-12-18T17:28:13.928Z,11.32
2022-12-18T17:31:03.660Z,11.10
2022-12-18T17:33:37.025Z,9.50
2022-12-18T17:36:24.598Z,9.43
2022-12-18T17:39:01.832Z,10.23
2022-12-18T17:41:48.571Z,10.70
2022-12-18T17:44:21.794Z,9.98
2022-12-18T17:47:09.632Z,9.88
2022-12-18T17:49:44.768Z,10.32
2022-12-18T17:52:31.612Z,10.05
2022-12-18T17:55:04.713Z,10.32
2022-12-18T17:57:51.677Z,10.00
2022-12-18T18:00:25.792Z,9.63
2022-12-18T18:03:12.876Z,9.98
2022-12-18T18:05:46.821Z,10.05
2022-12-18T18:08:34.686Z,9.55
2022-12-18T18:11:34.414Z,11.18
2022-12-18T18:14:26.959Z,9.05
2022-12-18T18:17:04.732Z,10.07
2022-12-18T18:19:51.789Z,10.10
2022-12-18T18:22:24.812Z,9.90
2022-12-18T18:25:12.706Z,10.32
2022-12-18T18:27:47.423Z,10.07
2022-12-18T18:30:35.090Z,10.90
2022-12-18T18:33:11.974Z,11.60
2022-12-18T18:36:00.903Z,9.82
2022-12-18T18:38:34.943Z,9.75
2022-12-18T18:41:22.759Z,9.60
2022-12-18T18:44:00.960Z,10.57
2022-12-18T18:46:54.756Z,8.82
2022-12-18T18:49:48.741Z,10.10
2022-12-18T18:52:36.075Z,10.23
2022-12-18T18:55:13.720Z,10.93
2022-12-18T18:58:07.795Z,10.07
2022-12-18T19:00:41.277Z,9.52
2022-12-18T19:03:29.017Z,11.20
2022-12-18T19:06:05.576Z,10.13
2022-12-18T19:08:53.790Z,10.87
2022-12-18T19:11:46.637Z,9.93
2022-12-18T19:14:34.063Z,11.57
2022-12-18T19:17:07.982Z,10.40
2022-12-18T19:19:58.474Z,8.68
2022-12-18T19:22:31.953Z,10.90
2022-12-18T19:25:19.905Z,11.05
2022-12-18T19:27:53.167Z,10.20
2022-12-18T19:30:45.029Z,10.27
2022-12-18T19:33:41.985Z,11.23
2022-12-18T19:36:32.305Z,10.98
2022-12-18T19:39:08.223Z,10.38
2022-12-18T19:41:55.074Z,9.32
2022-12-18T19:44:29.063Z,11.30
2022-12-18T19:47:15.933Z,9.85
2022-12-18T19:49:50.286Z,10.27
2022-12-18T19:52:37.193Z,10.65
2022-12-18T19:55:11.075Z,10.00
2022-12-18T19:57:58.177Z,11.10
2022-12-18T20:00:32.066Z,11.02
2022-12-18T20:03:28.679Z,10.32
2022-12-18T20:06:33.338Z,9.75
2022-12-18T20:09:20.130Z,12.13
2022-12-18T20:11:55.109Z,11.13
2022-12-18T20:14:44.024Z,11.85
2022-12-18T20:17:19.711Z,11.13
2022-12-18T20:20:07.165Z,12.10
2022-12-18T20:22:42.209Z,11.90
2022-12-18T20:25:29.024Z,12.52
2022-12-18T20:28:02.239Z,11.25
2022-12-18T20:30:50.155Z,13.27
2022-12-18T20:33:25.209Z,13.75
2022-12-18T20:36:15.180Z,12.48
2022-12-18T20:38:50.332Z,14.30
2022-12-18T20:41:39.109Z,13.25
2022-12-18T20:44:23.704Z,14.05
2022-12-18T20:47:18.142Z,15.13
2022-12-18T20:50:12.170Z,15.30
2022-12-18T20:52:59.277Z,14.00
2022-12-18T20:55:33.377Z,13.45
2022-12-18T20:58:23.152Z,14.55
2022-12-18T21:00:57.363Z,14.25
2022-12-18T21:03:46.361Z,13.73
2022-12-18T21:06:21.775Z,13.68
2022-12-18T21:09:08.176Z,15.27
2022-12-18T21:12:00.326Z,13.77
